sensor_id;sensor_type;location;lat;lon;timestamp;temperature;humidity
25170;DHT22;13129;48.012;10.352;2023-03-16T04:30:18;-1.90;99.90
25170;DHT22;13129;48.012;10.352;2023-03-16T04:32:44;-1.90;99.90
25170;DHT22;13129;48.012;10.352;2023-03-16T04:35:10;-2.00;99.90
25170;DHT22;13129;48.012;10.352;2023-03-16T04:37:35;-2.00;99.90
25170;DHT22;13129;48.012;10.352;2023-03-16T04:40:01;-2.00;99.90
25170;DHT22;13129;48.012;10.352;2023-03-16T04:45:06;-2.00;99.90
25170;DHT22;13129;48.012;10.352;2023-03-16T04:47:33;-2.00;99.90
25170;DHT22;13129;48.012;10.352;2023-03-16T04:50:02;-2.00;99.90
25170;DHT22;13129;48.012;10.352;2023-03-16T04:52:28;-2.00;99.90
25170;DHT22;13129;48.012;10.352;2023-03-16T04:54:54;-2.00;99.90
25170;DHT22;13129;48.012;10.352;2023-03-16T04:57:19;-2.00;99.90
25170;DHT22;13129;48.012;10.352;2023-03-16T04:59:45;-2.00;99.90
25170;DHT22;13129;48.012;10.352;2023-03-16T05:02:11;-1.90;99.90
25170;DHT22;13129;48.012;10.352;2023-03-16T05:04:36;-1.90;99.90
25170;DHT22;13129;48.012;10.352;2023-03-16T05:07:02;-1.90;99.90
25170;DHT22;13129;48.012;10.352;2023-03-16T05:09:28;-1.90;99.90
25170;DHT22;13129;48.012;10.352;2023-03-16T05:11:54;-1.80;99.90
25170;DHT22;13129;48.012;10.352;2023-03-16T05:14:19;-1.80;99.90
25170;DHT22;13129;48.012;10.352;2023-03-16T05:16:45;-1.80;99.90
25170;DHT22;13129;48.012;10.352;2023-03-16T05:19:11;-1.80;99.90
25170;DHT22;13129;48.012;10.352;2023-03-16T05:21:36;-1.80;99.90
25170;DHT22;13129;48.012;10.352;2023-03-16T05:24:06;-1.80;99.90
25170;DHT22;13129;48.012;10.352;2023-03-16T05:26:32;-1.70;99.90
25170;DHT22;13129;48.012;10.352;2023-03-16T05:28:59;-1.80;99.90
25170;DHT22;13129;48.012;10.352;2023-03-16T05:31:24;-1.80;99.90
25170;DHT22;13129;48.012;10.352;2023-03-16T05:33:57;-1.70;99.90
25170;DHT22;13129;48.012;10.352;2023-03-16T05:36:22;-1.70;99.90
25170;DHT22;13129;48.012;10.352;2023-03-16T05:38:49;-1.70;99.90
25170;DHT22;13129;48.012;10.352;2023-03-16T05:41:15;-1.70;99.90
25170;DHT22;13129;48.012;10.352;2023-03-16T05:43:43;-1.60;99.90
25170;DHT22;13129;48.012;10.352;2023-03-16T05:46:09;-1.60;99.90
25170;DHT22;13129;48.012;10.352;2023-03-16T05:48:34;-1.50;99.90
25170;DHT22;13129;48.012;10.352;2023-03-16T05:51:00;-1.50;99.90
25170;DHT22;13129;48.012;10.352;2023-03-16T05:53:26;-1.40;99.90
25170;DHT22;13129;48.012;10.352;2023-03-16T05:55:53;-1.30;99.90
25170;DHT22;13129;48.012;10.352;2023-03-16T05:58:19;-1.30;99.90
25170;DHT22;13129;48.012;10.352;2023-03-16T06:00:45;-1.20;99.90
25170;DHT22;13129;48.012;10.352;2023-03-16T06:03:11;-1.10;99.90
25170;DHT22;13129;48.012;10.352;2023-03-16T06:05:37;-0.90;99.90
25170;DHT22;13129;48.012;10.352;2023-03-16T06:08:03;-0.70;99.90
25170;DHT22;13129;48.012;10.352;2023-03-16T06:10:28;-0.60;99.90
25170;DHT22;13129;48.012;10.352;2023-03-16T06:12:54;-0.60;99.90
25170;DHT22;13129;48.012;10.352;2023-03-16T06:15:20;-0.60;99.90
25170;DHT22;13129;48.012;10.352;2023-03-16T06:17:49;-0.60;99.90
25170;DHT22;13129;48.012;10.352;2023-03-16T06:20:14;-0.60;99.90
25170;DHT22;13129;48.012;10.352;2023-03-16T06:22:43;-0.60;99.90
25170;DHT22;13129;48.012;10.352;2023-03-16T06:25:11;-0.50;99.90
25170;DHT22;13129;48.012;10.352;2023-03-16T06:27:37;-0.40;99.90
25170;DHT22;13129;48.012;10.352;2023-03-16T06:30:07;-0.30;99.90
25170;DHT22;13129;48.012;10.352;2023-03-16T06:32:34;-0.30;99.90
25170;DHT22;13129;48.012;10.352;2023-03-16T06:35:00;-0.20;99.90
25170;DHT22;13129;48.012;10.352;2023-03-16T06:37:28;-0.20;99.90
25170;DHT22;13129;48.012;10.352;2023-03-16T06:39:54;-0.20;99.90
25170;DHT22;13129;48.012;10.352;2023-03-16T06:42:20;-0.10;99.90
25170;DHT22;13129;48.012;10.352;2023-03-16T06:44:46;0.00;99.90
25170;DHT22;13129;48.012;10.352;2023-03-16T06:47:12;0.00;99.90
25170;DHT22;13129;48.012;10.352;2023-03-16T06:49:38;0.10;99.90
25170;DHT22;13129;48.012;10.352;2023-03-16T06:52:03;0.20;99.90
25170;DHT22;13129;48.012;10.352;2023-03-16T06:54:29;0.40;99.90
25170;DHT22;13129;48.012;10.352;2023-03-16T06:56:57;0.50;99.90
25170;DHT22;13129;48.012;10.352;2023-03-16T06:59:22;0.60;99.90
25170;DHT22;13129;48.012;10.352;2023-03-16T07:01:48;0.70;99.90
25170;DHT22;13129;48.012;10.352;2023-03-16T07:04:14;0.80;99.90
25170;DHT22;13129;48.012;10.352;2023-03-16T07:06:40;0.80;99.90
25170;DHT22;13129;48.012;10.352;2023-03-16T07:09:06;0.90;99.90
25170;DHT22;13129;48.012;10.352;2023-03-16T07:11:31;1.10;99.90
25170;DHT22;13129;48.012;10.352;2023-03-16T07:13:57;1.20;99.90
25170;DHT22;13129;48.012;10.352;2023-03-16T07:16:24;1.40;99.90
25170;DHT22;13129;48.012;10.352;2023-03-16T07:18:49;1.50;99.90
25170;DHT22;13129;48.012;10.352;2023-03-16T07:21:17;1.60;99.90
25170;DHT22;13129;48.012;10.352;2023-03-16T07:23:42;1.80;99.90
25170;DHT22;13129;48.012;10.352;2023-03-16T07:26:09;2.50;99.90
25170;DHT22;13129;48.012;10.352;2023-03-16T07:28:37;4.30;99.90
25170;DHT22;13129;48.012;10.352;2023-03-16T07:31:04;6.40;99.90
25170;DHT22;13129;48.012;10.352;2023-03-16T07:33:31;8.10;99.90
25170;DHT22;13129;48.012;10.352;2023-03-16T07:35:57;9.70;99.90
25170;DHT22;13129;48.012;10.352;2023-03-16T07:38:22;11.00;99.90
25170;DHT22;13129;48.012;10.352;2023-03-16T07:40:48;12.20;99.90
25170;DHT22;13129;48.012;10.352;2023-03-16T07:43:16;12.80;98.70
25170;DHT22;13129;48.012;10.352;2023-03-16T07:45:47;12.60;96.30
25170;DHT22;13129;48.012;10.352;2023-03-16T07:48:12;12.90;95.70
25170;DHT22;13129;48.012;10.352;2023-03-16T07:50:38;13.60;92.70
25170;DHT22;13129;48.012;10.352;2023-03-16T07:53:04;14.40;90.10
25170;DHT22;13129;48.012;10.352;2023-03-16T07:55:29;14.80;85.80
25170;DHT22;13129;48.012;10.352;2023-03-16T07:57:56;15.40;81.70
25170;DHT22;13129;48.012;10.352;2023-03-16T08:00:22;16.30;77.60
25170;DHT22;13129;48.012;10.352;2023-03-16T08:02:49;16.50;72.50
25170;DHT22;13129;48.012;10.352;2023-03-16T08:05:15;17.60;72.80
25170;DHT22;13129;48.012;10.352;2023-03-16T08:07:41;18.60;67.40
25170;DHT22;13129;48.012;10.352;2023-03-16T08:10:07;19.10;64.00
25170;DHT22;13129;48.012;10.352;2023-03-16T08:12:32;20.20;59.20
25170;DHT22;13129;48.012;10.352;2023-03-16T08:14:58;20.60;57.60
25170;DHT22;13129;48.012;10.352;2023-03-16T08:17:24;20.80;55.90
25170;DHT22;13129;48.012;10.352;2023-03-16T08:19:49;21.00;53.80
25170;DHT22;13129;48.012;10.352;2023-03-16T08:22:15;20.90;53.30
25170;DHT22;13129;48.012;10.352;2023-03-16T08:24:41;21.40;52.50
25170;DHT22;13129;48.012;10.352;2023-03-16T08:27:07;20.40;52.10
25170;DHT22;13129;48.012;10.352;2023-03-16T08:29:33;19.70;52.20
25170;DHT22;13129;48.012;10.352;2023-03-16T08:31:58;20.20;52.10
25170;DHT22;13129;48.012;10.352;2023-03-16T08:34:25;20.80;50.70
25170;DHT22;13129;48.012;10.352;2023-03-16T08:36:51;21.20;50.90
25170;DHT22;13129;48.012;10.352;2023-03-16T08:39:17;21.70;49.20
25170;DHT22;13129;48.012;10.352;2023-03-16T08:41:42;21.90;47.90
25170;DHT22;13129;48.012;10.352;2023-03-16T08:44:10;22.90;46.30
25170;DHT22;13129;48.012;10.352;2023-03-16T08:46:37;23.00;44.90
25170;DHT22;13129;48.012;10.352;2023-03-16T08:49:04;22.90;44.60
25170;DHT22;13129;48.012;10.352;2023-03-16T08:51:31;23.30;43.90
25170;DHT22;13129;48.012;10.352;2023-03-16T08:53:57;23.60;42.70
25170;DHT22;13129;48.012;10.352;2023-03-16T08:56:23;23.30;43.40
25170;DHT22;13129;48.012;10.352;2023-03-16T08:58:48;22.90;43.40
25170;DHT22;13129;48.012;10.352;2023-03-16T09:01:16;23.00;43.00
25170;DHT22;13129;48.012;10.352;2023-03-16T09:03:43;23.50;43.10
25170;DHT22;13129;48.012;10.352;2023-03-16T09:06:13;23.80;43.00
25170;DHT22;13129;48.012;10.352;2023-03-16T09:08:39;24.00;41.80
25170;DHT22;13129;48.012;10.352;2023-03-16T09:11:08;24.00;41.90
25170;DHT22;13129;48.012;10.352;2023-03-16T09:13:35;23.80;40.40
25170;DHT22;13129;48.012;10.352;2023-03-16T09:16:03;23.90;40.90
25170;DHT22;13129;48.012;10.352;2023-03-16T09:18:30;23.50;40.70
25170;DHT22;13129;48.012;10.352;2023-03-16T09:21:02;23.80;40.50
25170;DHT22;13129;48.012;10.352;2023-03-16T09:23:29;23.50;40.70
25170;DHT22;13129;48.012;10.352;2023-03-16T09:26:02;24.40;39.70
25170;DHT22;13129;48.012;10.352;2023-03-16T09:28:29;25.50;39.40
25170;DHT22;13129;48.012;10.352;2023-03-16T09:30:56;25.40;39.40
25170;DHT22;13129;48.012;10.352;2023-03-16T09:33:25;26.00;39.10
25170;DHT22;13129;48.012;10.352;2023-03-16T09:35:53;25.70;38.70
25170;DHT22;13129;48.012;10.352;2023-03-16T09:38:22;25.70;39.10
25170;DHT22;13129;48.012;10.352;2023-03-16T09:41:01;25.90;39.70
25170;DHT22;13129;48.012;10.352;2023-03-16T09:46:08;27.20;36.90
25170;DHT22;13129;48.012;10.352;2023-03-16T09:48:37;27.00;36.60
25170;DHT22;13129;48.012;10.352;2023-03-16T09:51:06;27.90;36.10
25170;DHT22;13129;48.012;10.352;2023-03-16T09:53:37;27.70;35.30
25170;DHT22;13129;48.012;10.352;2023-03-16T09:56:11;27.00;35.00
25170;DHT22;13129;48.012;10.352;2023-03-16T09:58:40;26.30;35.80
25170;DHT22;13129;48.012;10.352;2023-03-16T10:06:29;25.40;34.70
25170;DHT22;13129;48.012;10.352;2023-03-16T10:09:06;24.80;34.80
25170;DHT22;13129;48.012;10.352;2023-03-16T10:11:41;25.00;34.20
25170;DHT22;13129;48.012;10.352;2023-03-16T10:16:55;25.90;33.70
25170;DHT22;13129;48.012;10.352;2023-03-16T10:19:42;26.00;33.40
25170;DHT22;13129;48.012;10.352;2023-03-16T10:24:50;26.10;32.80
25170;DHT22;13129;48.012;10.352;2023-03-16T10:27:28;25.70;32.70
25170;DHT22;13129;48.012;10.352;2023-03-16T10:29:55;24.70;32.90
25170;DHT22;13129;48.012;10.352;2023-03-16T10:32:21;23.60;35.00
25170;DHT22;13129;48.012;10.352;2023-03-16T10:35:03;23.90;36.10
25170;DHT22;13129;48.012;10.352;2023-03-16T10:37:31;23.90;34.80
25170;DHT22;13129;48.012;10.352;2023-03-16T10:39:58;23.90;35.30
25170;DHT22;13129;48.012;10.352;2023-03-16T10:42:25;24.30;36.10
25170;DHT22;13129;48.012;10.352;2023-03-16T10:44:57;24.40;35.60
25170;DHT22;13129;48.012;10.352;2023-03-16T10:47:28;24.20;36.30
25170;DHT22;13129;48.012;10.352;2023-03-16T10:49:54;23.60;37.50
25170;DHT22;13129;48.012;10.352;2023-03-16T10:52:34;23.90;37.70
25170;DHT22;13129;48.012;10.352;2023-03-16T10:55:19;24.20;36.90
25170;DHT22;13129;48.012;10.352;2023-03-16T10:57:51;23.30;37.20
25170;DHT22;13129;48.012;10.352;2023-03-16T11:02:47;23.50;38.10
25170;DHT22;13129;48.012;10.352;2023-03-16T11:07:49;23.10;37.40
25170;DHT22;13129;48.012;10.352;2023-03-16T11:11:07;21.80;37.50
25170;DHT22;13129;48.012;10.352;2023-03-16T11:13:18;20.30;39.60
25170;DHT22;13129;48.012;10.352;2023-03-16T11:15:56;18.80;42.30
25170;DHT22;13129;48.012;10.352;2023-03-16T11:18:38;17.90;43.90
25170;DHT22;13129;48.012;10.352;2023-03-16T11:23:53;17.00;45.40
25170;DHT22;13129;48.012;10.352;2023-03-16T11:26:27;16.90;46.10
25170;DHT22;13129;48.012;10.352;2023-03-16T11:29:04;16.50;46.70
25170;DHT22;13129;48.012;10.352;2023-03-16T11:31:49;16.00;47.50
25170;DHT22;13129;48.012;10.352;2023-03-16T11:34:25;15.50;48.90
25170;DHT22;13129;48.012;10.352;2023-03-16T11:36:55;14.90;49.20
25170;DHT22;13129;48.012;10.352;2023-03-16T11:39:51;14.60;49.60
25170;DHT22;13129;48.012;10.352;2023-03-16T11:42:32;14.60;50.20
25170;DHT22;13129;48.012;10.352;2023-03-16T11:45:00;14.30;50.40
25170;DHT22;13129;48.012;10.352;2023-03-16T11:48:03;14.10;50.70
25170;DHT22;13129;48.012;10.352;2023-03-16T11:56:30;14.20;50.90
25170;DHT22;13129;48.012;10.352;2023-03-16T11:59:23;14.10;50.50
25170;DHT22;13129;48.012;10.352;2023-03-16T12:13:20;13.70;52.10
25170;DHT22;13129;48.012;10.352;2023-03-16T12:15:58;13.70;52.20
25170;DHT22;13129;48.012;10.352;2023-03-16T12:18:38;13.60;52.30
25170;DHT22;13129;48.012;10.352;2023-03-16T12:21:14;13.60;52.80
25170;DHT22;13129;48.012;10.352;2023-03-16T12:23:52;13.80;53.00
25170;DHT22;13129;48.012;10.352;2023-03-16T12:26:22;13.80;52.60
25170;DHT22;13129;48.012;10.352;2023-03-16T12:28:50;13.60;53.00
25170;DHT22;13129;48.012;10.352;2023-03-16T12:34:26;13.20;53.50
25170;DHT22;13129;48.012;10.352;2023-03-16T12:42:43;12.80;53.40
25170;DHT22;13129;48.012;10.352;2023-03-16T12:45:20;12.70;53.80
25170;DHT22;13129;48.012;10.352;2023-03-16T12:50:23;12.80;54.70
25170;DHT22;13129;48.012;10.352;2023-03-16T12:52:52;12.90;55.60
25170;DHT22;13129;48.012;10.352;2023-03-16T12:55:39;13.00;56.10
25170;DHT22;13129;48.012;10.352;2023-03-16T12:58:08;12.70;55.70
25170;DHT22;13129;48.012;10.352;2023-03-16T13:00:55;12.60;55.90
25170;DHT22;13129;48.012;10.352;2023-03-16T13:03:27;12.40;55.60
25170;DHT22;13129;48.012;10.352;2023-03-16T13:05:55;12.30;55.80
25170;DHT22;13129;48.012;10.352;2023-03-16T13:08:23;12.20;55.40
25170;DHT22;13129;48.012;10.352;2023-03-16T13:11:00;12.30;55.70
25170;DHT22;13129;48.012;10.352;2023-03-16T13:13:27;12.20;56.00
25170;DHT22;13129;48.012;10.352;2023-03-16T13:18:40;12.30;56.10
25170;DHT22;13129;48.012;10.352;2023-03-16T13:21:19;12.30;55.40
25170;DHT22;13129;48.012;10.352;2023-03-16T13:24:13;12.20;55.80
25170;DHT22;13129;48.012;10.352;2023-03-16T13:26:45;12.10;55.90
25170;DHT22;13129;48.012;10.352;2023-03-16T13:29:27;12.00;56.40
25170;DHT22;13129;48.012;10.352;2023-03-16T13:32:02;11.90;57.00
25170;DHT22;13129;48.012;10.352;2023-03-16T13:34:36;11.80;56.30
25170;DHT22;13129;48.012;10.352;2023-03-16T13:37:12;11.70;56.30
25170;DHT22;13129;48.012;10.352;2023-03-16T13:39:38;11.60;56.30
25170;DHT22;13129;48.012;10.352;2023-03-16T13:42:15;11.50;56.30
25170;DHT22;13129;48.012;10.352;2023-03-16T13:44:42;11.50;56.90
25170;DHT22;13129;48.012;10.352;2023-03-16T13:47:16;11.40;57.10
25170;DHT22;13129;48.012;10.352;2023-03-16T13:49:57;11.40;57.50
25170;DHT22;13129;48.012;10.352;2023-03-16T13:52:28;11.40;57.40
25170;DHT22;13129;48.012;10.352;2023-03-16T13:54:58;11.40;57.90
25170;DHT22;13129;48.012;10.352;2023-03-16T13:57:28;11.40;58.30
25170;DHT22;13129;48.012;10.352;2023-03-16T14:02:46;11.40;59.60
25170;DHT22;13129;48.012;10.352;2023-03-16T14:05:25;11.40;59.10
25170;DHT22;13129;48.012;10.352;2023-03-16T14:07:53;11.40;60.20
25170;DHT22;13129;48.012;10.352;2023-03-16T14:10:20;11.40;59.80
25170;DHT22;13129;48.012;10.352;2023-03-16T14:12:54;11.40;60.70
25170;DHT22;13129;48.012;10.352;2023-03-16T14:15:22;11.50;60.50
25170;DHT22;13129;48.012;10.352;2023-03-16T14:17:50;11.40;59.20
25170;DHT22;13129;48.012;10.352;2023-03-16T14:20:22;11.40;59.10
25170;DHT22;13129;48.012;10.352;2023-03-16T14:22:51;11.40;59.00
25170;DHT22;13129;48.012;10.352;2023-03-16T14:25:23;11.40;59.60
25170;DHT22;13129;48.012;10.352;2023-03-16T14:27:58;11.30;59.60
25170;DHT22;13129;48.012;10.352;2023-03-16T14:30:27;11.20;59.60
25170;DHT22;13129;48.012;10.352;2023-03-16T14:33:00;11.10;60.00
25170;DHT22;13129;48.012;10.352;2023-03-16T14:35:40;11.10;59.70
25170;DHT22;13129;48.012;10.352;2023-03-16T14:41:23;11.00;60.20
25170;DHT22;13129;48.012;10.352;2023-03-16T14:43:50;11.00;60.30
25170;DHT22;13129;48.012;10.352;2023-03-16T14:46:29;11.00;60.90
25170;DHT22;13129;48.012;10.352;2023-03-16T14:51:28;10.90;60.40
25170;DHT22;13129;48.012;10.352;2023-03-16T14:53:54;10.80;60.30
25170;DHT22;13129;48.012;10.352;2023-03-16T14:56:20;10.80;60.90
25170;DHT22;13129;48.012;10.352;2023-03-16T14:58:46;10.80;60.50
25170;DHT22;13129;48.012;10.352;2023-03-16T15:01:15;10.70;60.90
25170;DHT22;13129;48.012;10.352;2023-03-16T15:03:42;10.70;61.20
25170;DHT22;13129;48.012;10.352;2023-03-16T15:06:09;10.70;61.10
25170;DHT22;13129;48.012;10.352;2023-03-16T15:08:35;10.70;61.20
25170;DHT22;13129;48.012;10.352;2023-03-16T15:11:08;10.70;61.00
25170;DHT22;13129;48.012;10.352;2023-03-16T15:13:35;10.70;61.40
25170;DHT22;13129;48.012;10.352;2023-03-16T15:16:10;10.60;62.60
25170;DHT22;13129;48.012;10.352;2023-03-16T15:18:37;10.60;62.30
25170;DHT22;13129;48.012;10.352;2023-03-16T15:21:13;10.60;62.40
25170;DHT22;13129;48.012;10.352;2023-03-16T15:23:40;10.50;62.60
25170;DHT22;13129;48.012;10.352;2023-03-16T15:26:10;10.40;63.20
25170;DHT22;13129;48.012;10.352;2023-03-16T15:28:35;10.30;63.90
25170;DHT22;13129;48.012;10.352;2023-03-16T15:31:02;10.20;64.50
25170;DHT22;13129;48.012;10.352;2023-03-16T15:33:28;10.10;65.00
25170;DHT22;13129;48.012;10.352;2023-03-16T15:35:55;9.90;65.30
25170;DHT22;13129;48.012;10.352;2023-03-16T15:40:50;9.70;66.10
25170;DHT22;13129;48.012;10.352;2023-03-16T15:43:18;9.70;66.50
25170;DHT22;13129;48.012;10.352;2023-03-16T15:45:45;9.60;66.10
25170;DHT22;13129;48.012;10.352;2023-03-16T15:48:12;9.60;66.20
25170;DHT22;13129;48.012;10.352;2023-03-16T15:50:39;9.60;66.70
25170;DHT22;13129;48.012;10.352;2023-03-16T15:53:23;9.60;66.70
25170;DHT22;13129;48.012;10.352;2023-03-16T15:55:52;9.60;66.70
25170;DHT22;13129;48.012;10.352;2023-03-16T15:58:24;9.60;66.70
25170;DHT22;13129;48.012;10.352;2023-03-16T16:00:52;9.60;66.90
25170;DHT22;13129;48.012;10.352;2023-03-16T16:03:22;9.60;67.00
25170;DHT22;13129;48.012;10.352;2023-03-16T16:05:48;9.60;66.50
25170;DHT22;13129;48.012;10.352;2023-03-16T16:08:14;9.60;66.40
25170;DHT22;13129;48.012;10.352;2023-03-16T16:10:41;9.60;66.30
25170;DHT22;13129;48.012;10.352;2023-03-16T16:13:26;9.60;66.50
25170;DHT22;13129;48.012;10.352;2023-03-16T16:15:53;9.60;66.60
25170;DHT22;13129;48.012;10.352;2023-03-16T16:18:31;9.60;67.00
25170;DHT22;13129;48.012;10.352;2023-03-16T16:21:00;9.60;67.00
25170;DHT22;13129;48.012;10.352;2023-03-16T16:23:28;9.50;67.20
25170;DHT22;13129;48.012;10.352;2023-03-16T16:25:58;9.40;67.20
25170;DHT22;13129;48.012;10.352;2023-03-16T16:28:28;9.40;67.50
25170;DHT22;13129;48.012;10.352;2023-03-16T16:30:55;9.30;67.50
25170;DHT22;13129;48.012;10.352;2023-03-16T16:33:32;9.20;67.90
25170;DHT22;13129;48.012;10.352;2023-03-16T16:36:01;9.00;68.40
25170;DHT22;13129;48.012;10.352;2023-03-16T16:38:27;9.00;69.00
25170;DHT22;13129;48.012;10.352;2023-03-16T16:40:54;8.80;69.40
25170;DHT22;13129;48.012;10.352;2023-03-16T16:43:38;8.70;70.40
25170;DHT22;13129;48.012;10.352;2023-03-16T22:46:50;0.90;99.90
25170;DHT22;13129;48.012;10.352;2023-03-16T22:49:19;0.80;99.90
25170;DHT22;13129;48.012;10.352;2023-03-16T22:51:47;0.70;99.90
25170;DHT22;13129;48.012;10.352;2023-03-16T22:54:15;0.70;99.90
25170;DHT22;13129;48.012;10.352;2023-03-16T22:56:44;0.60;99.90
25170;DHT22;13129;48.012;10.352;2023-03-16T22:59:16;0.60;99.90
25170;DHT22;13129;48.012;10.352;2023-03-16T23:01:44;0.40;99.90
25170;DHT22;13129;48.012;10.352;2023-03-16T23:04:13;0.30;99.90
25170;DHT22;13129;48.012;10.352;2023-03-16T23:06:40;0.30;99.90
25170;DHT22;13129;48.012;10.352;2023-03-16T23:09:06;0.30;99.90
25170;DHT22;13129;48.012;10.352;2023-03-16T23:11:33;0.10;99.90
25170;DHT22;13129;48.012;10.352;2023-03-16T23:14:01;0.10;99.90
25170;DHT22;13129;48.012;10.352;2023-03-16T23:16:31;0.10;99.90
25170;DHT22;13129;48.012;10.352;2023-03-16T23:18:57;0.20;99.90
25170;DHT22;13129;48.012;10.352;2023-03-16T23:21:24;0.10;99.90
25170;DHT22;13129;48.012;10.352;2023-03-16T23:23:51;0.10;99.90
25170;DHT22;13129;48.012;10.352;2023-03-16T23:26:22;0.10;99.90
25170;DHT22;13129;48.012;10.352;2023-03-16T23:28:49;0.00;99.90
25170;DHT22;13129;48.012;10.352;2023-03-16T23:31:17;0.00;99.90
25170;DHT22;13129;48.012;10.352;2023-03-16T23:33:43;0.00;99.90
25170;DHT22;13129;48.012;10.352;2023-03-16T23:36:18;0.00;99.90
25170;DHT22;13129;48.012;10.352;2023-03-16T23:38:45;-0.10;99.90
25170;DHT22;13129;48.012;10.352;2023-03-16T23:41:13;-0.10;99.90
25170;DHT22;13129;48.012;10.352;2023-03-16T23:43:40;-0.10;99.90
25170;DHT22;13129;48.012;10.352;2023-03-16T23:46:10;-0.10;99.90
25170;DHT22;13129;48.012;10.352;2023-03-16T23:48:37;-0.20;99.90
25170;DHT22;13129;48.012;10.352;2023-03-16T23:51:04;-0.30;99.90
25170;DHT22;13129;48.012;10.352;2023-03-16T23:53:30;-0.30;99.90
25170;DHT22;13129;48.012;10.352;2023-03-16T23:55:56;-0.40;99.90
25170;DHT22;13129;48.012;10.352;2023-03-16T23:58:21;-0.40;99.90
